Time;durP1;ratioP1;P1;durP2;ratioP2;P2;SDS_P1;SDS_P2;PMS_P1;PMS_P2;Temp;Humidity;BMP_temperature;BMP_pressure;BME280_temperature;BME280_humidity;BME280_pressure;Samples;Min_cycle;Max_cycle;Signal;HPM_P1;HPM_P2
2024/01/16 00:02:00;;;;;;;4.50;2.60;;;3.10;99.90;;;;;;5031030;28;20738;-58
2024/01/16 00:04:29;;;;;;;3.70;2.70;;;3.10;99.90;;;;;;5032340;28;20210;-58
2024/01/16 00:06:56;;;;;;;4.10;2.50;;;3.00;99.90;;;;;;5031447;28;20222;-58
2024/01/16 00:09:23;;;;;;;5.17;2.77;;;3.00;99.90;;;;;;5031319;28;20210;-58
2024/01/16 00:11:50;;;;;;;6.33;2.73;;;3.00;99.90;;;;;;5030969;28;20222;-58
2024/01/16 00:14:16;;;;;;;4.63;2.47;;;2.90;99.90;;;;;;5030616;28;20206;-59
2024/01/16 00:16:44;;;;;;;3.27;2.50;;;2.80;99.90;;;;;;5031214;28;20202;-59
2024/01/16 00:19:12;;;;;;;6.60;2.70;;;2.60;99.90;;;;;;5030919;28;20289;-59
2024/01/16 00:21:40;;;;;;;4.87;2.80;;;2.60;99.90;;;;;;5030732;28;20631;-58
2024/01/16 00:24:07;;;;;;;4.73;2.40;;;2.70;99.90;;;;;;5030667;28;20237;-58
2024/01/16 00:26:34;;;;;;;6.07;2.67;;;2.70;99.90;;;;;;5031111;28;20305;-58
2024/01/16 00:29:01;;;;;;;4.77;2.40;;;2.80;99.90;;;;;;5031012;28;20280;-58
2024/01/16 00:31:28;;;;;;;3.37;2.23;;;2.90;99.90;;;;;;5030549;28;20719;-59
2024/01/16 00:33:55;;;;;;;5.37;2.70;;;2.90;99.90;;;;;;5030745;28;20214;-58
2024/01/16 00:36:23;;;;;;;3.90;2.70;;;2.90;99.90;;;;;;5030808;28;20283;-58
2024/01/16 00:38:50;;;;;;;4.57;2.40;;;2.80;99.90;;;;;;5032023;28;20214;-58
2024/01/16 00:41:16;;;;;;;3.47;2.30;;;2.90;99.90;;;;;;5034021;28;20219;-57
2024/01/16 00:43:44;;;;;;;3.27;2.50;;;2.90;99.90;;;;;;5034496;28;20206;-57
2024/01/16 00:46:11;;;;;;;5.20;2.70;;;2.90;99.90;;;;;;5033723;28;20226;-57
2024/01/16 00:48:37;;;;;;;4.27;2.83;;;2.90;99.90;;;;;;5034157;28;20210;-58
2024/01/16 00:51:05;;;;;;;4.00;2.57;;;2.90;99.90;;;;;;5033993;28;20226;-58
2024/01/16 00:53:33;;;;;;;4.27;3.07;;;3.00;99.90;;;;;;5034211;28;20203;-58
2024/01/16 00:56:00;;;;;;;3.80;2.90;;;3.00;99.90;;;;;;5033994;28;20199;-60
2024/01/16 00:58:27;;;;;;;4.53;2.90;;;3.10;99.90;;;;;;5034177;28;20649;-58
2024/01/16 01:00:54;;;;;;;3.93;2.90;;;3.10;99.90;;;;;;5033837;28;20225;-58
2024/01/16 01:03:21;;;;;;;4.87;2.57;;;3.10;99.90;;;;;;5033769;28;20641;-57
2024/01/16 01:05:47;;;;;;;4.33;2.70;;;3.10;99.90;;;;;;5033670;28;20198;-57
2024/01/16 01:08:14;;;;;;;3.40;2.70;;;3.10;99.90;;;;;;5033745;28;20210;-58
2024/01/16 01:10:42;;;;;;;4.27;2.77;;;3.10;99.90;;;;;;5033601;28;20236;-58
2024/01/16 01:13:09;;;;;;;7.70;3.07;;;3.10;99.90;;;;;;5033793;28;20210;-57
2024/01/16 01:15:34;;;;;;;5.43;2.67;;;3.20;99.90;;;;;;5033558;28;20230;-58
2024/01/16 01:18:01;;;;;;;4.27;3.07;;;3.20;99.90;;;;;;5033902;28;20656;-58
2024/01/16 01:20:28;;;;;;;4.13;2.73;;;3.30;99.90;;;;;;5033420;28;20207;-58
2024/01/16 01:22:54;;;;;;;4.70;2.97;;;3.30;99.90;;;;;;5033572;28;20222;-57
2024/01/16 01:25:21;;;;;;;4.13;2.73;;;3.30;99.90;;;;;;5033217;28;20210;-58
2024/01/16 01:27:49;;;;;;;5.87;2.67;;;3.30;99.90;;;;;;5033296;28;20226;-59
2024/01/16 01:30:16;;;;;;;4.23;2.83;;;3.30;99.90;;;;;;5033445;28;20561;-58
2024/01/16 01:32:43;;;;;;;4.20;2.60;;;3.20;99.90;;;;;;5033428;28;20344;-58
2024/01/16 01:35:11;;;;;;;5.57;3.17;;;3.20;99.90;;;;;;5032976;28;20275;-58
2024/01/16 01:37:38;;;;;;;4.80;2.97;;;3.20;99.90;;;;;;5033272;28;20206;-58
2024/01/16 01:40:05;;;;;;;5.23;3.00;;;3.20;99.90;;;;;;5033488;28;20210;-58
2024/01/16 01:42:32;;;;;;;5.30;2.80;;;3.10;99.90;;;;;;5025273;28;20218;-59
2024/01/16 01:45:00;;;;;;;4.00;2.80;;;3.00;99.90;;;;;;5032792;28;20217;-59
2024/01/16 01:47:27;;;;;;;3.93;2.60;;;2.90;99.90;;;;;;5033057;28;20272;-59
2024/01/16 01:49:53;;;;;;;3.87;2.50;;;2.90;99.90;;;;;;5033252;28;20214;-58
2024/01/16 01:52:20;;;;;;;4.40;2.77;;;2.80;99.90;;;;;;5032559;28;20226;-58
2024/01/16 01:54:47;;;;;;;6.60;3.07;;;2.80;99.90;;;;;;5032983;28;20641;-58
2024/01/16 01:57:14;;;;;;;5.10;3.00;;;2.70;99.90;;;;;;5032877;28;20323;-58
2024/01/16 01:59:41;;;;;;;6.67;3.00;;;2.60;99.90;;;;;;5032747;28;20213;-57
2024/01/16 02:02:09;;;;;;;5.60;3.00;;;2.60;99.90;;;;;;5032592;28;20312;-58
2024/01/16 02:04:37;;;;;;;5.43;3.27;;;2.50;99.90;;;;;;5032781;28;20198;-60
2024/01/16 02:07:05;;;;;;;5.77;3.13;;;2.50;99.90;;;;;;5032552;28;20218;-59
2024/01/16 02:09:32;;;;;;;4.20;2.90;;;2.50;99.90;;;;;;5024710;28;20202;-58
2024/01/16 02:11:59;;;;;;;5.27;2.93;;;2.50;99.90;;;;;;5032514;28;20232;-58
2024/01/16 02:14:26;;;;;;;3.70;2.70;;;2.60;99.90;;;;;;5032260;28;20225;-60
2024/01/16 02:16:52;;;;;;;5.83;2.70;;;2.70;99.90;;;;;;5032391;28;20672;-58
2024/01/16 02:19:20;;;;;;;5.10;3.20;;;2.70;99.90;;;;;;5032399;28;20629;-58
2024/01/16 02:21:49;;;;;;;5.53;2.83;;;2.80;99.90;;;;;;5032507;28;20232;-58
2024/01/16 02:24:19;;;;;;;6.07;3.17;;;2.80;99.90;;;;;;5032264;28;20214;-57
2024/01/16 02:26:46;;;;;;;5.60;2.77;;;2.90;99.90;;;;;;5032475;28;20264;-58
2024/01/16 02:29:13;;;;;;;4.27;2.80;;;3.00;99.90;;;;;;5032280;28;20685;-58
2024/01/16 02:31:40;;;;;;;5.40;2.90;;;3.00;99.90;;;;;;5032105;28;20230;-58
2024/01/16 02:34:06;;;;;;;7.33;2.90;;;3.00;99.90;;;;;;5031922;28;20206;-58
2024/01/16 02:36:33;;;;;;;4.43;2.87;;;2.90;99.90;;;;;;5024557;28;20206;-57
2024/01/16 02:39:00;;;;;;;4.33;2.80;;;3.00;99.90;;;;;;5032418;28;20214;-57
2024/01/16 02:41:28;;;;;;;5.20;2.67;;;3.00;99.90;;;;;;5031969;28;20650;-58
2024/01/16 02:43:55;;;;;;;6.17;2.77;;;3.10;99.90;;;;;;5031876;28;20198;-57
2024/01/16 02:46:21;;;;;;;4.13;2.90;;;3.10;99.90;;;;;;5031838;28;20559;-58
2024/01/16 02:48:48;;;;;;;5.63;2.67;;;3.10;99.90;;;;;;5031798;28;20626;-58
2024/01/16 02:51:15;;;;;;;3.97;2.80;;;3.10;99.90;;;;;;5031550;28;20606;-58
2024/01/16 02:53:42;;;;;;;5.57;3.20;;;3.10;99.90;;;;;;5031932;28;20228;-59
2024/01/16 02:56:09;;;;;;;6.43;2.77;;;3.10;99.90;;;;;;5031585;28;20327;-58
2024/01/16 02:58:37;;;;;;;4.27;2.80;;;3.00;99.90;;;;;;5031753;28;20205;-57
2024/01/16 03:01:04;;;;;;;7.60;2.93;;;3.00;99.90;;;;;;5031052;28;20248;-58
2024/01/16 03:03:31;;;;;;;3.17;2.50;;;3.00;99.90;;;;;;5031705;28;20202;-58
2024/01/16 03:05:59;;;;;;;5.00;2.83;;;2.80;99.90;;;;;;5031472;28;20202;-58
2024/01/16 03:08:25;;;;;;;4.97;3.00;;;2.60;99.90;;;;;;5031607;28;20271;-58
2024/01/16 03:10:52;;;;;;;6.40;3.00;;;2.50;99.90;;;;;;5031736;28;20210;-58
2024/01/16 03:13:19;;;;;;;5.40;2.90;;;2.30;99.90;;;;;;5031616;28;20211;-58
2024/01/16 03:15:47;;;;;;;3.97;2.83;;;2.20;99.90;;;;;;5031821;28;20202;-57
2024/01/16 03:18:13;;;;;;;4.23;2.83;;;2.20;99.90;;;;;;5031766;28;20255;-58
2024/01/16 03:20:40;;;;;;;6.30;3.27;;;2.20;99.90;;;;;;5031554;28;20214;-57
2024/01/16 03:23:07;;;;;;;5.53;2.90;;;2.10;99.90;;;;;;5031444;28;20217;-58
2024/01/16 03:25:38;;;;;;;4.97;2.90;;;2.10;99.90;;;;;;5031647;28;20206;-58
2024/01/16 03:28:07;;;;;;;4.27;2.90;;;2.00;99.90;;;;;;5031484;28;20251;-57
2024/01/16 03:30:34;;;;;;;6.03;2.83;;;2.00;99.90;;;;;;5023279;28;20737;-57
2024/01/16 03:33:03;;;;;;;4.80;2.97;;;2.00;99.90;;;;;;5031495;28;20224;-57
2024/01/16 03:35:29;;;;;;;6.67;3.63;;;2.00;99.90;;;;;;5031019;28;20202;-57
2024/01/16 03:37:56;;;;;;;6.83;2.97;;;1.90;99.90;;;;;;5031278;28;20668;-58
2024/01/16 03:40:23;;;;;;;5.20;3.40;;;1.90;99.90;;;;;;5031096;28;20313;-59
2024/01/16 03:42:49;;;;;;;5.67;3.23;;;1.80;99.90;;;;;;5031050;28;20300;-58
2024/01/16 03:45:16;;;;;;;6.50;2.93;;;1.70;99.90;;;;;;5030900;28;20726;-58
2024/01/16 03:47:43;;;;;;;3.47;3.00;;;1.60;99.90;;;;;;5031219;28;20218;-59
2024/01/16 03:50:11;;;;;;;7.13;3.50;;;1.60;99.90;;;;;;5031149;28;20214;-59
2024/01/16 03:52:38;;;;;;;6.37;3.10;;;1.70;99.90;;;;;;5031375;28;20322;-59
2024/01/16 03:55:05;;;;;;;5.57;2.83;;;1.80;99.90;;;;;;5030822;28;20202;-58
2024/01/16 03:57:32;;;;;;;5.60;2.90;;;1.80;99.90;;;;;;5031202;28;20320;-59
2024/01/16 03:59:59;;;;;;;4.23;3.00;;;1.90;99.90;;;;;;5031343;28;20203;-58
2024/01/16 04:02:25;;;;;;;7.83;3.00;;;2.00;99.90;;;;;;5031245;28;20232;-58
2024/01/16 04:04:52;;;;;;;4.50;2.77;;;2.10;99.90;;;;;;5031194;28;20211;-58
2024/01/16 04:07:21;;;;;;;4.10;3.03;;;2.10;99.90;;;;;;5030937;28;20288;-58
2024/01/16 04:09:47;;;;;;;3.90;2.80;;;2.20;99.90;;;;;;5031174;28;20238;-58
2024/01/16 04:12:14;;;;;;;6.37;2.97;;;2.20;99.90;;;;;;5031081;28;20230;-57
2024/01/16 04:14:41;;;;;;;6.50;3.63;;;2.20;99.90;;;;;;5033610;28;20210;-58
2024/01/16 04:17:08;;;;;;;5.37;2.90;;;2.20;99.90;;;;;;5034896;28;20206;-59
2024/01/16 04:19:34;;;;;;;7.63;3.33;;;2.20;99.90;;;;;;5034873;28;20264;-57
2024/01/16 04:22:01;;;;;;;3.80;2.63;;;2.10;99.90;;;;;;5035290;28;20233;-58
2024/01/16 04:24:29;;;;;;;4.27;2.80;;;2.00;99.90;;;;;;5034745;28;20214;-59
2024/01/16 04:26:56;;;;;;;5.73;3.13;;;2.00;99.90;;;;;;5034899;28;20206;-58
2024/01/16 04:29:23;;;;;;;5.47;2.90;;;1.90;99.90;;;;;;5034641;28;20206;-59
2024/01/16 04:31:49;;;;;;;4.70;3.00;;;1.60;99.90;;;;;;5034640;28;20578;-58
2024/01/16 04:34:16;;;;;;;5.03;2.87;;;1.50;99.90;;;;;;5034406;28;20252;-58
2024/01/16 04:36:43;;;;;;;4.10;3.10;;;1.40;99.90;;;;;;5034552;28;20610;-57
2024/01/16 04:39:10;;;;;;;7.67;3.07;;;1.40;99.90;;;;;;5034535;28;20209;-58
2024/01/16 04:41:38;;;;;;;6.17;3.37;;;1.30;99.90;;;;;;5026600;28;20218;-58
2024/01/16 04:44:04;;;;;;;6.20;3.13;;;1.30;99.90;;;;;;5034505;28;20224;-58
2024/01/16 04:46:31;;;;;;;8.30;3.87;;;1.30;99.90;;;;;;5034470;28;20206;-58
2024/01/16 04:48:58;;;;;;;9.87;6.93;;;1.20;99.90;;;;;;5034343;28;20226;-58
2024/01/16 04:51:25;;;;;;;5.93;3.50;;;1.10;99.90;;;;;;5033917;28;20389;-58
2024/01/16 04:53:53;;;;;;;5.70;3.23;;;1.00;99.90;;;;;;5034641;28;20228;-59
2024/01/16 04:56:20;;;;;;;6.17;4.10;;;0.90;99.90;;;;;;5034200;28;20739;-58
2024/01/16 04:58:48;;;;;;;6.50;3.30;;;0.90;99.90;;;;;;5034684;28;20308;-58
2024/01/16 05:01:15;;;;;;;5.77;3.30;;;0.90;99.90;;;;;;5034107;28;20524;-58
2024/01/16 05:03:42;;;;;;;5.63;3.30;;;0.90;99.90;;;;;;5034433;28;20210;-58
2024/01/16 05:06:14;;;;;;;6.83;3.77;;;0.90;99.90;;;;;;5033775;28;20213;-58
2024/01/16 05:08:41;;;;;;;6.17;4.00;;;0.80;99.90;;;;;;5026560;28;20316;-58
2024/01/16 05:11:08;;;;;;;7.40;3.90;;;0.70;99.90;;;;;;5034134;28;20295;-58
2024/01/16 05:13:34;;;;;;;6.60;4.23;;;0.60;99.90;;;;;;5033727;28;20690;-58
2024/01/16 05:16:03;;;;;;;8.07;4.43;;;0.50;99.90;;;;;;5033617;28;20416;-58
2024/01/16 05:18:29;;;;;;;6.60;4.63;;;0.40;99.90;;;;;;5034238;28;20225;-58
2024/01/16 05:20:56;;;;;;;8.00;5.20;;;0.30;99.90;;;;;;5033801;28;20230;-58
2024/01/16 05:23:23;;;;;;;8.63;4.90;;;0.20;99.90;;;;;;5033770;28;20257;-57
2024/01/16 05:25:50;;;;;;;5.40;4.00;;;0.20;99.90;;;;;;5033028;28;20252;-58
2024/01/16 05:28:17;;;;;;;8.77;4.57;;;0.20;99.90;;;;;;5033472;28;20269;-58
2024/01/16 05:30:43;;;;;;;8.60;4.47;;;0.20;99.90;;;;;;5033542;28;20209;-57
2024/01/16 05:33:11;;;;;;;4.67;3.63;;;0.20;99.90;;;;;;5033532;28;20672;-58
2024/01/16 05:35:38;;;;;;;8.33;4.13;;;0.10;99.90;;;;;;5025967;28;20248;-58
2024/01/16 05:38:06;;;;;;;5.97;3.70;;;0.10;99.90;;;;;;5033566;28;20258;-58
2024/01/16 05:40:33;;;;;;;6.97;4.80;;;0.10;99.90;;;;;;5033215;28;20537;-57
2024/01/16 05:43:00;;;;;;;8.13;4.70;;;0.10;99.90;;;;;;5033253;28;20589;-58
2024/01/16 05:45:26;;;;;;;6.67;4.77;;;0.00;99.90;;;;;;5032742;28;20602;-58
2024/01/16 05:47:53;;;;;;;7.87;4.60;;;0.00;99.90;;;;;;5033244;28;20256;-58
2024/01/16 05:50:21;;;;;;;6.43;4.10;;;-0.10;99.90;;;;;;5033406;28;20268;-58
2024/01/16 05:52:47;;;;;;;6.97;4.70;;;-0.10;99.90;;;;;;5032794;28;20222;-58
2024/01/16 05:55:14;;;;;;;7.53;4.67;;;-0.10;99.90;;;;;;5032740;28;20210;-58
2024/01/16 05:57:43;;;;;;;5.83;4.27;;;-0.10;99.90;;;;;;5032991;28;20676;-58
2024/01/16 06:00:10;;;;;;;9.77;5.53;;;-0.10;99.90;;;;;;5032795;28;20202;-58
2024/01/16 06:02:37;;;;;;;10.40;5.43;;;0.10;99.90;;;;;;5032744;28;20229;-58
2024/01/16 06:05:05;;;;;;;6.40;4.50;;;-0.10;99.90;;;;;;5032729;28;20590;-58
2024/01/16 06:07:33;;;;;;;9.53;4.93;;;-0.10;99.90;;;;;;5032887;28;20317;-59
2024/01/16 06:10:00;;;;;;;8.27;4.40;;;-0.10;99.90;;;;;;5032769;28;20209;-58
2024/01/16 06:12:27;;;;;;;7.07;4.70;;;-0.10;99.90;;;;;;5032267;28;20260;-59
2024/01/16 06:14:54;;;;;;;8.57;5.13;;;-0.20;99.90;;;;;;5032637;28;20206;-59
2024/01/16 06:17:20;;;;;;;7.67;4.70;;;-0.30;99.90;;;;;;5032355;28;20209;-58
2024/01/16 06:19:47;;;;;;;7.00;4.63;;;-0.40;99.90;;;;;;5032615;28;20253;-58
2024/01/16 06:22:14;;;;;;;8.23;4.30;;;-0.50;99.90;;;;;;5032041;28;20675;-58
2024/01/16 06:24:42;;;;;;;8.07;4.73;;;-0.50;99.90;;;;;;5032084;28;20624;-58
2024/01/16 06:27:09;;;;;;;8.17;4.73;;;-0.50;99.90;;;;;;5032266;28;20202;-59
2024/01/16 06:29:35;;;;;;;8.63;4.97;;;-0.50;99.90;;;;;;5032332;28;20222;-59
2024/01/16 06:32:02;;;;;;;8.73;5.27;;;-0.40;99.90;;;;;;5032079;28;20226;-58
2024/01/16 06:34:29;;;;;;;7.60;4.83;;;-0.30;99.90;;;;;;5032060;28;20210;-59
2024/01/16 06:36:56;;;;;;;8.97;5.00;;;-0.20;99.90;;;;;;5031335;28;20289;-59
2024/01/16 06:39:23;;;;;;;9.90;5.00;;;-0.10;99.90;;;;;;5031897;28;20203;-59
2024/01/16 06:41:51;;;;;;;9.83;5.97;;;-0.20;99.90;;;;;;5031942;28;20222;-59
2024/01/16 06:44:17;;;;;;;11.77;5.90;;;-0.30;99.90;;;;;;5031909;28;20572;-59
2024/01/16 06:46:44;;;;;;;6.23;4.17;;;-0.30;99.90;;;;;;5031825;28;20203;-59
2024/01/16 06:49:11;;;;;;;7.00;4.20;;;-0.30;99.90;;;;;;5031631;28;20218;-59
2024/01/16 06:51:37;;;;;;;7.57;4.57;;;-0.20;99.90;;;;;;5031371;28;20226;-58
2024/01/16 06:54:04;;;;;;;5.47;3.57;;;-0.10;99.90;;;;;;5031508;28;20202;-58
2024/01/16 06:56:31;;;;;;;6.73;3.70;;;0.10;99.90;;;;;;5031320;28;20235;-58
2024/01/16 06:58:59;;;;;;;6.60;3.47;;;0.10;99.90;;;;;;5031741;28;20221;-58
2024/01/16 07:01:27;;;;;;;6.17;3.27;;;0.20;99.90;;;;;;5031492;28;20243;-58
2024/01/16 07:03:54;;;;;;;3.37;2.77;;;0.30;99.90;;;;;;5031767;28;20628;-58
2024/01/16 07:06:20;;;;;;;4.23;3.03;;;0.30;99.90;;;;;;5031155;28;20206;-58
2024/01/16 07:08:47;;;;;;;7.83;3.03;;;0.40;99.90;;;;;;5031658;28;20221;-58
2024/01/16 07:11:14;;;;;;;4.63;2.93;;;0.50;99.90;;;;;;5031540;28;20222;-57
2024/01/16 07:13:41;;;;;;;5.50;3.40;;;0.60;99.90;;;;;;5023688;28;20205;-58
2024/01/16 07:16:11;;;;;;;5.57;3.00;;;0.70;99.90;;;;;;5031359;28;20202;-58
2024/01/16 07:18:38;;;;;;;21.03;14.70;;;0.80;99.90;;;;;;5031285;28;20699;-58
2024/01/16 07:21:05;;;;;;;5.30;3.33;;;0.90;99.90;;;;;;5031185;28;20226;-60
2024/01/16 07:23:32;;;;;;;7.30;3.57;;;1.00;99.90;;;;;;5030821;28;20206;-58
2024/01/16 07:25:58;;;;;;;4.13;2.90;;;1.10;99.90;;;;;;5031009;28;20203;-58
2024/01/16 07:28:25;;;;;;;6.20;3.80;;;1.20;99.90;;;;;;5031430;28;20218;-58
2024/01/16 07:30:54;;;;;;;7.00;3.63;;;1.30;99.90;;;;;;5031299;28;20229;-58
2024/01/16 07:33:22;;;;;;;5.43;3.00;;;1.40;99.90;;;;;;5031228;28;20202;-59
2024/01/16 07:35:49;;;;;;;4.70;3.03;;;1.40;99.90;;;;;;5031005;28;20253;-58
2024/01/16 07:38:16;;;;;;;7.23;4.27;;;1.40;99.90;;;;;;5031310;28;20228;-58
2024/01/16 07:40:42;;;;;;;8.83;4.87;;;1.40;99.90;;;;;;5023257;28;20210;-58
2024/01/16 07:43:09;;;;;;;7.67;5.10;;;1.40;99.90;;;;;;5031137;28;20202;-59
2024/01/16 07:45:36;;;;;;;8.40;4.57;;;1.40;99.90;;;;;;5030771;28;20668;-59
2024/01/16 07:48:03;;;;;;;7.97;4.30;;;1.50;99.90;;;;;;5032853;28;20205;-58
2024/01/16 07:50:31;;;;;;;8.00;4.20;;;1.60;99.90;;;;;;5035210;28;20260;-58
2024/01/16 07:52:57;;;;;;;4.23;3.33;;;1.60;99.90;;;;;;5035005;28;20229;-57
2024/01/16 07:55:24;;;;;;;4.13;2.83;;;1.70;99.90;;;;;;5034969;28;20289;-57
2024/01/16 07:57:51;;;;;;;4.60;3.10;;;1.80;99.90;;;;;;5035250;28;20202;-59
2024/01/16 08:00:18;;;;;;;5.33;3.10;;;1.80;99.90;;;;;;5034800;28;20209;-59
2024/01/16 08:02:45;;;;;;;6.17;3.07;;;1.90;99.90;;;;;;5034840;28;20640;-58
2024/01/16 08:05:12;;;;;;;4.63;3.00;;;2.00;99.90;;;;;;5034683;28;20213;-57
2024/01/16 08:07:43;;;;;;;3.37;2.60;;;2.10;99.90;;;;;;5034883;28;20238;-59
2024/01/16 08:10:10;;;;;;;4.97;2.60;;;2.10;99.90;;;;;;5034928;28;20218;-59
2024/01/16 08:12:38;;;;;;;4.10;2.73;;;2.10;99.90;;;;;;5034976;28;20244;-59
2024/01/16 08:15:07;;;;;;;7.63;3.13;;;2.20;99.90;;;;;;5034463;28;20289;-59
2024/01/16 08:17:34;;;;;;;4.13;3.07;;;2.20;99.90;;;;;;5034347;28;20221;-58
2024/01/16 08:20:00;;;;;;;7.37;3.93;;;2.20;99.90;;;;;;5034738;28;20557;-59
2024/01/16 08:22:27;;;;;;;6.90;4.50;;;2.20;99.90;;;;;;5034295;28;20237;-58
2024/01/16 08:24:56;;;;;;;8.87;4.30;;;2.40;99.90;;;;;;5034671;28;20206;-59
2024/01/16 08:27:22;;;;;;;8.23;4.80;;;2.50;99.90;;;;;;5034340;28;20292;-59
2024/01/16 08:29:49;;;;;;;7.67;3.73;;;2.70;99.90;;;;;;5034397;28;20222;-59
2024/01/16 08:32:16;;;;;;;4.90;3.47;;;2.80;99.90;;;;;;5034270;28;20232;-59
2024/01/16 08:34:43;;;;;;;9.50;4.43;;;3.00;99.90;;;;;;5034452;28;20210;-58
2024/01/16 08:37:10;;;;;;;4.60;3.30;;;3.10;99.90;;;;;;5034482;28;20564;-59
2024/01/16 08:39:36;;;;;;;9.17;5.10;;;3.20;99.90;;;;;;5034388;28;20213;-59
2024/01/16 08:42:05;;;;;;;4.17;2.87;;;3.30;99.90;;;;;;5034441;28;20642;-58
2024/01/16 08:44:32;;;;;;;22.83;14.17;;;3.40;99.90;;;;;;5033824;28;20680;-59
2024/01/16 08:46:59;;;;;;;6.13;3.57;;;3.40;99.90;;;;;;5034310;28;20202;-59
2024/01/16 08:49:26;;;;;;;5.30;3.30;;;3.50;99.90;;;;;;5033841;28;20219;-59
2024/01/16 08:51:52;;;;;;;5.07;2.80;;;3.60;99.90;;;;;;5034019;28;20229;-59
2024/01/16 08:54:22;;;;;;;3.53;2.83;;;3.70;99.90;;;;;;5033896;28;20213;-58
2024/01/16 08:56:49;;;;;;;4.33;2.53;;;3.70;99.90;;;;;;5033865;28;20647;-58
2024/01/16 08:59:17;;;;;;;3.83;2.60;;;3.70;99.90;;;;;;5032991;28;20253;-58
2024/01/16 09:01:44;;;;;;;4.10;2.60;;;3.80;99.90;;;;;;5033894;28;20279;-58
2024/01/16 09:04:11;;;;;;;6.27;4.33;;;3.90;99.90;;;;;;5033994;28;20268;-59
2024/01/16 09:06:38;;;;;;;3.90;2.47;;;4.00;99.90;;;;;;5033745;28;20221;-58
2024/01/16 09:09:05;;;;;;;4.13;2.70;;;4.10;99.90;;;;;;5033832;28;20226;-59
2024/01/16 09:11:32;;;;;;;5.87;2.90;;;4.10;99.90;;;;;;5033596;28;20314;-59
2024/01/16 09:13:59;;;;;;;5.07;2.67;;;4.10;99.90;;;;;;5033915;28;20676;-58
2024/01/16 09:16:27;;;;;;;3.83;2.60;;;4.20;99.90;;;;;;5033334;28;20203;-58
2024/01/16 09:18:54;;;;;;;6.27;4.07;;;4.30;99.90;;;;;;5033673;28;20213;-59
2024/01/16 09:21:21;;;;;;;6.20;3.00;;;4.40;99.90;;;;;;5033300;28;20313;-58
2024/01/16 09:23:48;;;;;;;6.40;2.70;;;4.60;99.90;;;;;;5033557;28;20202;-58
2024/01/16 09:26:14;;;;;;;4.47;2.40;;;4.60;99.90;;;;;;5033130;28;20241;-58
2024/01/16 09:28:41;;;;;;;5.43;2.20;;;4.70;99.90;;;;;;5033367;28;20368;-59
2024/01/16 09:31:08;;;;;;;9.37;2.77;;;4.70;99.90;;;;;;5033257;28;20222;-59
2024/01/16 09:33:36;;;;;;;3.47;2.70;;;4.80;99.90;;;;;;5033490;28;20644;-58
2024/01/16 09:36:03;;;;;;;11.27;6.23;;;5.00;99.90;;;;;;5032925;28;20672;-58
2024/01/16 09:38:30;;;;;;;4.43;2.57;;;5.20;99.90;;;;;;5033548;28;20206;-58
2024/01/16 09:40:58;;;;;;;3.60;2.30;;;5.40;99.90;;;;;;5033212;28;20226;-58
2024/01/16 09:43:27;;;;;;;5.40;3.00;;;5.40;99.90;;;;;;5033657;28;20237;-59
2024/01/16 09:45:56;;;;;;;3.67;2.50;;;5.40;99.90;;;;;;5033235;28;20683;-58
2024/01/16 09:48:23;;;;;;;4.40;2.50;;;5.30;99.90;;;;;;5033011;28;20205;-57
2024/01/16 09:50:51;;;;;;;5.70;2.57;;;5.40;99.90;;;;;;5032974;28;20211;-58
2024/01/16 09:53:18;;;;;;;4.67;3.00;;;5.40;99.90;;;;;;5033144;28;20276;-60
2024/01/16 09:55:45;;;;;;;4.80;2.70;;;5.40;99.90;;;;;;5032677;28;20672;-61
2024/01/16 09:58:14;;;;;;;4.40;2.33;;;5.50;99.90;;;;;;5033072;28;20230;-59
2024/01/16 10:00:43;;;;;;;3.87;2.30;;;5.60;99.90;;;;;;5032689;28;20207;-60
2024/01/16 10:03:12;;;;;;;3.70;2.60;;;5.70;99.90;;;;;;5033298;28;20644;-59
2024/01/16 10:05:40;;;;;;;5.93;2.93;;;5.60;99.90;;;;;;5032993;28;20592;-60
2024/01/16 10:08:08;;;;;;;6.07;2.43;;;5.50;99.90;;;;;;5033118;28;20260;-60
2024/01/16 10:10:35;;;;;;;3.33;2.47;;;5.50;99.90;;;;;;5031972;28;20350;-59
2024/01/16 10:13:02;;;;;;;5.03;2.70;;;5.60;99.90;;;;;;5032174;28;20202;-60
2024/01/16 10:15:29;;;;;;;4.10;2.37;;;5.60;99.90;;;;;;5030148;28;20206;-60
2024/01/16 10:17:56;;;;;;;3.83;2.20;;;5.70;99.90;;;;;;5024893;28;20229;-62
2024/01/16 10:20:33;;;;;;;4.30;2.50;;;5.70;99.90;;;;;;5023858;28;20211;-65
2024/01/16 10:23:00;;;;;;;3.23;2.17;;;5.90;99.90;;;;;;5026163;28;20582;-66
2024/01/16 10:25:28;;;;;;;4.73;2.80;;;6.10;99.90;;;;;;5032170;28;20221;-65
2024/01/16 10:28:04;;;;;;;6.07;2.47;;;6.10;99.90;;;;;;5032448;28;20743;-64
2024/01/16 10:30:31;;;;;;;5.87;2.97;;;6.30;99.90;;;;;;5031932;28;20225;-66
2024/01/16 10:33:14;;;;;;;4.67;2.93;;;6.40;99.90;;;;;;5032140;28;20234;-66
2024/01/16 10:35:41;;;;;;;3.30;2.30;;;6.50;99.90;;;;;;5031740;28;20297;-66
2024/01/16 10:38:07;;;;;;;4.10;2.30;;;6.50;99.90;;;;;;5032155;28;20213;-66
2024/01/16 10:40:35;;;;;;;5.43;2.40;;;6.60;99.60;;;;;;5031942;28;20202;-66
2024/01/16 10:43:04;;;;;;;4.23;2.40;;;6.70;99.60;;;;;;5032122;28;20206;-64
2024/01/16 10:45:31;;;;;;;4.17;2.43;;;6.70;99.60;;;;;;5023087;28;20348;-66
2024/01/16 10:48:05;;;;;;;5.47;2.30;;;6.70;99.90;;;;;;5031818;28;20213;-65
2024/01/16 10:50:32;;;;;;;4.87;2.27;;;6.70;99.70;;;;;;5031731;28;20261;-66
2024/01/16 10:53:01;;;;;;;5.50;2.20;;;6.80;99.80;;;;;;5032095;28;20252;-67
2024/01/16 10:55:30;;;;;;;5.03;3.30;;;6.90;99.40;;;;;;5023562;28;20249;-65
2024/01/16 10:58:00;;;;;;;5.60;2.40;;;7.00;99.80;;;;;;5027060;28;20218;-64
2024/01/16 11:00:28;;;;;;;4.77;2.63;;;7.20;99.90;;;;;;5020575;28;20210;-65
2024/01/16 11:03:02;;;;;;;2.83;2.17;;;7.40;98.70;;;;;;5031423;28;20321;-66
2024/01/16 11:05:31;;;;;;;4.50;2.33;;;7.50;98.00;;;;;;5030084;28;20671;-62
2024/01/16 11:08:01;;;;;;;3.77;2.40;;;7.60;98.00;;;;;;5020373;28;20257;-56
2024/01/16 11:10:28;;;;;;;4.37;2.27;;;7.50;98.40;;;;;;5028896;28;20222;-57
2024/01/16 11:13:00;;;;;;;2.90;2.03;;;7.60;98.30;;;;;;5031884;28;20226;-57
2024/01/16 11:15:28;;;;;;;6.93;2.50;;;7.70;97.50;;;;;;5031191;28;20210;-57
2024/01/16 11:17:56;;;;;;;4.93;2.40;;;7.80;96.80;;;;;;5031463;28;20213;-57
2024/01/16 11:20:23;;;;;;;7.93;3.80;;;7.90;97.00;;;;;;5031391;28;20198;-57
2024/01/16 11:22:51;;;;;;;5.33;3.80;;;8.00;97.00;;;;;;5031127;28;20305;-57
2024/01/16 11:25:19;;;;;;;4.43;2.20;;;8.00;97.50;;;;;;5031476;28;20206;-57
2024/01/16 11:27:50;;;;;;;3.73;2.17;;;8.10;97.10;;;;;;5031127;28;20206;-57
2024/01/16 11:30:32;;;;;;;3.90;2.40;;;8.30;97.00;;;;;;5031572;28;20229;-56
2024/01/16 11:32:59;;;;;;;6.10;2.40;;;8.30;96.80;;;;;;5024695;28;20716;-58
2024/01/16 11:35:34;;;;;;;6.10;2.27;;;8.30;96.00;;;;;;5030770;28;20221;-58
2024/01/16 11:38:10;;;;;;;6.80;2.70;;;8.30;96.30;;;;;;5031531;28;20225;-58
2024/01/16 11:40:37;;;;;;;5.07;3.57;;;8.30;95.90;;;;;;5031068;28;20292;-57
2024/01/16 11:43:37;;;;;;;5.10;2.00;;;8.50;96.00;;;;;;5031073;28;20664;-57
2024/01/16 11:46:07;;;;;;;4.53;1.93;;;8.60;95.90;;;;;;5024755;28;20218;-59
2024/01/16 11:48:34;;;;;;;3.80;2.00;;;8.60;96.00;;;;;;5031485;28;20237;-58
2024/01/16 11:51:01;;;;;;;2.80;2.00;;;8.60;95.40;;;;;;5031074;28;20229;-57
2024/01/16 11:53:39;;;;;;;4.20;1.80;;;8.60;95.70;;;;;;5030903;28;20214;-58
2024/01/16 11:56:53;;;;;;;4.17;2.30;;;8.70;95.70;;;;;;5031197;28;20394;-57
2024/01/16 11:59:48;;;;;;;4.07;2.30;;;8.90;94.80;;;;;;5027268;28;20202;-57
2024/01/16 12:02:23;;;;;;;3.90;1.90;;;8.80;94.90;;;;;;5026279;28;20222;-58
2024/01/16 12:04:56;;;;;;;5.37;1.80;;;8.90;94.20;;;;;;5022682;28;20202;-57
2024/01/16 12:07:23;;;;;;;4.57;2.07;;;8.90;93.40;;;;;;5030886;28;20683;-56
2024/01/16 12:09:49;;;;;;;3.97;1.60;;;9.00;92.90;;;;;;5031172;28;20222;-57
2024/01/16 12:12:18;;;;;;;5.10;2.00;;;8.70;92.90;;;;;;5030948;28;20226;-57
2024/01/16 12:14:53;;;;;;;5.50;3.57;;;8.00;93.80;;;;;;5030690;28;20631;-56
2024/01/16 12:17:21;;;;;;;2.33;1.47;;;7.70;94.10;;;;;;5030647;28;20202;-58
2024/01/16 12:19:49;;;;;;;3.93;2.30;;;7.80;94.50;;;;;;5030901;28;20221;-58
2024/01/16 12:22:18;;;;;;;4.37;2.13;;;8.10;95.20;;;;;;5030890;28;20222;-57
2024/01/16 12:24:45;;;;;;;3.30;1.90;;;8.30;94.50;;;;;;5030678;28;20214;-56
2024/01/16 12:27:12;;;;;;;4.83;2.30;;;8.20;94.20;;;;;;5030818;28;20253;-59
2024/01/16 12:29:39;;;;;;;4.27;1.90;;;7.90;94.40;;;;;;5030658;28;20280;-58
2024/01/16 12:32:08;;;;;;;7.67;2.13;;;7.50;94.40;;;;;;5030544;28;20226;-58
2024/01/16 12:34:45;;;;;;;7.13;2.63;;;7.50;95.20;;;;;;5031331;28;20206;-58
2024/01/16 12:37:12;;;;;;;5.53;2.10;;;7.60;94.70;;;;;;5034545;28;20226;-57
2024/01/16 12:39:41;;;;;;;7.77;1.77;;;7.40;94.80;;;;;;5034124;28;20224;-57
2024/01/16 12:42:09;;;;;;;3.70;2.13;;;7.10;94.90;;;;;;5034047;28;20244;-58
2024/01/16 12:44:36;;;;;;;4.20;2.10;;;6.90;96.10;;;;;;5033853;28;20217;-57
2024/01/16 12:47:03;;;;;;;8.90;4.60;;;7.20;95.40;;;;;;5034325;28;20207;-57
2024/01/16 12:49:30;;;;;;;5.07;2.20;;;7.60;95.70;;;;;;5034009;28;20210;-57
2024/01/16 12:52:18;;;;;;;3.93;1.93;;;8.10;95.00;;;;;;5034133;28;20337;-57
2024/01/16 12:54:46;;;;;;;5.07;2.10;;;8.00;93.80;;;;;;5033783;28;20221;-58
2024/01/16 12:57:19;;;;;;;4.10;1.90;;;7.90;94.30;;;;;;5034124;28;20286;-58
2024/01/16 12:59:46;;;;;;;3.47;2.00;;;7.20;94.20;;;;;;5033974;28;20234;-58